UAL2380 KORD-CYYZ
Flight info
| Callsign | UAL2380 |
|---|---|
| Flight time | 1h 2m |
| Altitude | 31000 |
| Route | EBAKE WISMO POSTS PADDE SVM QWERI NUBER6 |
| Aircraft | A319/M-SDE3FGHIRWY/LB1 |
Departure
| Time | 2026-05-04 23:53 |
|---|---|
| Airport | Chicago O'Hare International Airport (KORD) |
Arrival
| Time | 2026-05-05 00:55 |
|---|---|
| Airport | Toronto Pearson International Airport (CYYZ) |
| Time | Latitude | Longitude | Altitude | Speed | Heading |
|---|---|---|---|---|---|
| 2026-05-04 23:53 | 42.07552 | -87.78428 | 11140 ft | 384 kts | 68° |
| 2026-05-04 23:53 | 42.08510 | -87.75084 | 11759 ft | 392 kts | 65° |
| 2026-05-04 23:53 | 42.09568 | -87.71674 | 12485 ft | 397 kts | 64° |
| 2026-05-04 23:54 | 42.10641 | -87.68233 | 13223 ft | 401 kts | 65° |
| 2026-05-04 23:54 | 42.11705 | -87.64730 | 13861 ft | 407 kts | 66° |
| 2026-05-04 23:54 | 42.12749 | -87.61163 | 14486 ft | 412 kts | 67° |
| 2026-05-04 23:54 | 42.13776 | -87.57541 | 15103 ft | 417 kts | 68° |
| 2026-05-04 23:55 | 42.14798 | -87.53866 | 15731 ft | 422 kts | 68° |
| 2026-05-04 23:55 | 42.15826 | -87.50137 | 16367 ft | 426 kts | 68° |
| 2026-05-04 23:55 | 42.17920 | -87.42563 | 17613 ft | 437 kts | 68° |
| 2026-05-04 23:56 | 42.18993 | -87.38700 | 18189 ft | 442 kts | 68° |
| 2026-05-04 23:56 | 42.20080 | -87.34791 | 18754 ft | 447 kts | 68° |
| 2026-05-04 23:56 | 42.21171 | -87.30865 | 19251 ft | 449 kts | 68° |
| 2026-05-04 23:56 | 42.22271 | -87.26910 | 19850 ft | 452 kts | 68° |
| 2026-05-04 23:57 | 42.23377 | -87.22916 | 20385 ft | 457 kts | 68° |
| 2026-05-04 23:57 | 42.24490 | -87.18882 | 20916 ft | 461 kts | 68° |
| 2026-05-04 23:57 | 42.25607 | -87.14815 | 21423 ft | 464 kts | 68° |
| 2026-05-04 23:57 | 42.26733 | -87.10705 | 21925 ft | 468 kts | 68° |
| 2026-05-04 23:58 | 42.27662 | -87.06475 | 22408 ft | 473 kts | 77° |
| 2026-05-04 23:58 | 42.28117 | -87.02062 | 22892 ft | 477 kts | 86° |
| 2026-05-04 23:58 | 42.28296 | -86.97573 | 23332 ft | 480 kts | 87° |
| 2026-05-04 23:58 | 42.28476 | -86.93059 | 23747 ft | 483 kts | 87° |
| 2026-05-04 23:59 | 42.28658 | -86.88518 | 24201 ft | 484 kts | 87° |
| 2026-05-04 23:59 | 42.28841 | -86.83969 | 24631 ft | 486 kts | 87° |
| 2026-05-04 23:59 | 42.29026 | -86.79398 | 25059 ft | 489 kts | 87° |
| 2026-05-04 23:59 | 42.29213 | -86.74808 | 25479 ft | 491 kts | 87° |
| 2026-05-05 00:00 | 42.29395 | -86.70188 | 25886 ft | 493 kts | 87° |
| 2026-05-05 00:00 | 42.29452 | -86.68688 | 26014 ft | 494 kts | 87° |
| 2026-05-05 00:00 | 42.29743 | -86.60894 | 26680 ft | 498 kts | 88° |
| 2026-05-05 00:00 | 42.29916 | -86.56208 | 27057 ft | 500 kts | 87° |
| 2026-05-05 00:01 | 42.30087 | -86.51569 | 27441 ft | 502 kts | 88° |
| 2026-05-05 00:01 | 42.30260 | -86.46849 | 27816 ft | 504 kts | 88° |
| 2026-05-05 00:01 | 42.30431 | -86.42110 | 28181 ft | 506 kts | 88° |
| 2026-05-05 00:01 | 42.30601 | -86.37350 | 28527 ft | 509 kts | 88° |
| 2026-05-05 00:02 | 42.30770 | -86.32573 | 28883 ft | 511 kts | 88° |
| 2026-05-05 00:02 | 42.30939 | -86.27762 | 29221 ft | 513 kts | 88° |
| 2026-05-05 00:02 | 42.31107 | -86.22943 | 29546 ft | 514 kts | 88° |
| 2026-05-05 00:03 | 42.31440 | -86.13407 | 29590 ft | 505 kts | 88° |
| 2026-05-05 00:03 | 42.31646 | -86.03933 | 29593 ft | 504 kts | 90° |
| 2026-05-05 00:04 | 42.31513 | -85.94460 | 29596 ft | 504 kts | 93° |
| 2026-05-05 00:04 | 42.31284 | -85.85004 | 29604 ft | 504 kts | 92° |
| 2026-05-05 00:05 | 42.31128 | -85.75542 | 29609 ft | 504 kts | 92° |
| 2026-05-05 00:05 | 42.31029 | -85.66081 | 29610 ft | 504 kts | 91° |
| 2026-05-05 00:06 | 42.30922 | -85.56620 | 29610 ft | 503 kts | 92° |
| 2026-05-05 00:06 | 42.30777 | -85.47170 | 29608 ft | 503 kts | 92° |
| 2026-05-05 00:07 | 42.30613 | -85.37719 | 29591 ft | 503 kts | 92° |
| 2026-05-05 00:07 | 42.30451 | -85.28281 | 29616 ft | 502 kts | 92° |
| 2026-05-05 00:08 | 42.30290 | -85.18912 | 29622 ft | 502 kts | 92° |
| 2026-05-05 00:08 | 42.30120 | -85.09483 | 29618 ft | 502 kts | 92° |
| 2026-05-05 00:09 | 42.29937 | -85.00072 | 29632 ft | 502 kts | 92° |
| 2026-05-05 00:09 | 42.29719 | -84.90633 | 29623 ft | 502 kts | 92° |
| 2026-05-05 00:10 | 42.29479 | -84.81206 | 29620 ft | 503 kts | 93° |
| 2026-05-05 00:10 | 42.29233 | -84.71768 | 29615 ft | 503 kts | 93° |
| 2026-05-05 00:11 | 42.28982 | -84.62336 | 29614 ft | 503 kts | 93° |
| 2026-05-05 00:11 | 42.28733 | -84.52895 | 29621 ft | 502 kts | 93° |
| 2026-05-05 00:12 | 42.29136 | -84.43498 | 29623 ft | 502 kts | 79° |
| 2026-05-05 00:12 | 42.30250 | -84.35743 | 29620 ft | 502 kts | 78° |
| 2026-05-05 00:13 | 42.31580 | -84.26482 | 29607 ft | 502 kts | 78° |
| 2026-05-05 00:13 | 42.32880 | -84.17268 | 29611 ft | 502 kts | 79° |
| 2026-05-05 00:14 | 42.34177 | -84.08002 | 29622 ft | 502 kts | 79° |
| 2026-05-05 00:14 | 42.35470 | -83.98722 | 29630 ft | 502 kts | 79° |
| 2026-05-05 00:15 | 42.36755 | -83.89446 | 29633 ft | 502 kts | 79° |
| 2026-05-05 00:15 | 42.38036 | -83.80158 | 29632 ft | 502 kts | 79° |
| 2026-05-05 00:16 | 42.39310 | -83.70857 | 29631 ft | 502 kts | 79° |
| 2026-05-05 00:16 | 42.40569 | -83.61574 | 29643 ft | 502 kts | 79° |
| 2026-05-05 00:17 | 42.42319 | -83.52442 | 29638 ft | 501 kts | 73° |
| 2026-05-05 00:17 | 42.44231 | -83.43362 | 29625 ft | 502 kts | 73° |
| 2026-05-05 00:18 | 42.46139 | -83.34279 | 29613 ft | 502 kts | 73° |
| 2026-05-05 00:18 | 42.48040 | -83.25190 | 29611 ft | 502 kts | 73° |
| 2026-05-05 00:19 | 42.49924 | -83.16086 | 29614 ft | 502 kts | 73° |
| 2026-05-05 00:19 | 42.51807 | -83.06977 | 29608 ft | 502 kts | 73° |
| 2026-05-05 00:20 | 42.53680 | -82.97867 | 29617 ft | 502 kts | 73° |
| 2026-05-05 00:20 | 42.55547 | -82.88747 | 29556 ft | 501 kts | 73° |
| 2026-05-05 00:21 | 42.57412 | -82.79630 | 29554 ft | 502 kts | 73° |
| 2026-05-05 00:21 | 42.59257 | -82.70508 | 29557 ft | 501 kts | 73° |
| 2026-05-05 00:22 | 42.61084 | -82.61444 | 29566 ft | 501 kts | 73° |
| 2026-05-05 00:22 | 42.62921 | -82.52314 | 29582 ft | 501 kts | 73° |
| 2026-05-05 00:23 | 42.64755 | -82.43199 | 29610 ft | 501 kts | 73° |
| 2026-05-05 00:23 | 42.66567 | -82.34076 | 29619 ft | 500 kts | 73° |
| 2026-05-05 00:24 | 42.68920 | -82.25232 | 29620 ft | 496 kts | 60° |
| 2026-05-05 00:24 | 42.72733 | -82.17495 | 29618 ft | 492 kts | 50° |
| 2026-05-05 00:25 | 42.76791 | -82.10003 | 29627 ft | 492 kts | 50° |
| 2026-05-05 00:25 | 42.80723 | -82.02359 | 29614 ft | 496 kts | 57° |
| 2026-05-05 00:26 | 42.84097 | -81.94155 | 29624 ft | 496 kts | 58° |
| 2026-05-05 00:26 | 42.87486 | -81.85964 | 29622 ft | 496 kts | 58° |
| 2026-05-05 00:27 | 42.90887 | -81.77765 | 29624 ft | 497 kts | 58° |
| 2026-05-05 00:27 | 42.94267 | -81.69542 | 29641 ft | 497 kts | 58° |
| 2026-05-05 00:28 | 42.97625 | -81.61280 | 29636 ft | 498 kts | 58° |
| 2026-05-05 00:28 | 43.00997 | -81.53017 | 29638 ft | 498 kts | 58° |
| 2026-05-05 00:29 | 43.04339 | -81.44836 | 29639 ft | 498 kts | 58° |
| 2026-05-05 00:29 | 43.07702 | -81.36551 | 29643 ft | 498 kts | 58° |
| 2026-05-05 00:30 | 43.10986 | -81.28203 | 29660 ft | 499 kts | 59° |
| 2026-05-05 00:30 | 43.14235 | -81.19802 | 29649 ft | 499 kts | 59° |
| 2026-05-05 00:31 | 43.17486 | -81.11397 | 29529 ft | 500 kts | 59° |
| 2026-05-05 00:31 | 43.19122 | -81.07188 | 29242 ft | 501 kts | 59° |
| 2026-05-05 00:31 | 43.20763 | -81.02968 | 28928 ft | 500 kts | 59° |
| 2026-05-05 00:31 | 43.22399 | -80.98756 | 27712 ft | 505 kts | 59° |
| 2026-05-05 00:32 | 43.24058 | -80.94485 | 26675 ft | 507 kts | 59° |
| 2026-05-05 00:32 | 43.25705 | -80.90236 | 25797 ft | 503 kts | 59° |
| 2026-05-05 00:32 | 43.27345 | -80.85990 | 24852 ft | 502 kts | 59° |
| 2026-05-05 00:32 | 43.28971 | -80.81764 | 23928 ft | 500 kts | 59° |
| 2026-05-05 00:33 | 43.30590 | -80.77549 | 22950 ft | 498 kts | 59° |
| 2026-05-05 00:33 | 43.32200 | -80.73362 | 22013 ft | 493 kts | 60° |
| 2026-05-05 00:33 | 43.33791 | -80.69218 | 21125 ft | 488 kts | 60° |
| 2026-05-05 00:33 | 43.35363 | -80.65115 | 20231 ft | 483 kts | 60° |
| 2026-05-05 00:34 | 43.36914 | -80.61055 | 19335 ft | 478 kts | 61° |
| 2026-05-05 00:34 | 43.38447 | -80.57031 | 18473 ft | 473 kts | 61° |
| 2026-05-05 00:34 | 43.39963 | -80.53049 | 17587 ft | 468 kts | 61° |
| 2026-05-05 00:34 | 43.41455 | -80.49132 | 17093 ft | 453 kts | 61° |
| 2026-05-05 00:35 | 43.42894 | -80.45333 | 16412 ft | 446 kts | 61° |
| 2026-05-05 00:35 | 43.44317 | -80.41573 | 15930 ft | 436 kts | 61° |
| 2026-05-05 00:35 | 43.45671 | -80.37944 | 15798 ft | 417 kts | 64° |
| 2026-05-05 00:35 | 43.46732 | -80.34319 | 15670 ft | 399 kts | 68° |
| 2026-05-05 00:36 | 43.47708 | -80.30831 | 15546 ft | 383 kts | 68° |
| 2026-05-05 00:36 | 43.48644 | -80.27470 | 15420 ft | 369 kts | 68° |
| 2026-05-05 00:36 | 43.49549 | -80.24216 | 15191 ft | 360 kts | 68° |
| 2026-05-05 00:36 | 43.50439 | -80.21014 | 15007 ft | 355 kts | 68° |
| 2026-05-05 00:37 | 43.51320 | -80.17837 | 14874 ft | 355 kts | 68° |
| 2026-05-05 00:37 | 43.52191 | -80.14637 | 14413 ft | 356 kts | 68° |
| 2026-05-05 00:37 | 43.53045 | -80.11446 | 13967 ft | 356 kts | 68° |
| 2026-05-05 00:37 | 43.53891 | -80.08253 | 13650 ft | 352 kts | 68° |
| 2026-05-05 00:38 | 43.54712 | -80.05147 | 13140 ft | 348 kts | 69° |
| 2026-05-05 00:38 | 43.55536 | -80.02028 | 12505 ft | 344 kts | 69° |
| 2026-05-05 00:38 | 43.56350 | -79.98949 | 12004 ft | 341 kts | 69° |
| 2026-05-05 00:38 | 43.57167 | -79.95869 | 11548 ft | 342 kts | 69° |
| 2026-05-05 00:39 | 43.57972 | -79.92840 | 11204 ft | 338 kts | 69° |
| 2026-05-05 00:39 | 43.58784 | -79.89789 | 10808 ft | 337 kts | 70° |
| 2026-05-05 00:39 | 43.59378 | -79.86684 | 10462 ft | 333 kts | 83° |
| 2026-05-05 00:39 | 43.59494 | -79.83525 | 9959 ft | 329 kts | 92° |
| 2026-05-05 00:40 | 43.59508 | -79.80373 | 9469 ft | 327 kts | 92° |
| 2026-05-05 00:40 | 43.59529 | -79.77256 | 9004 ft | 322 kts | 92° |
| 2026-05-05 00:40 | 43.59553 | -79.74179 | 8480 ft | 320 kts | 92° |
| 2026-05-05 00:40 | 43.59578 | -79.71176 | 8337 ft | 304 kts | 92° |
| 2026-05-05 00:41 | 43.59604 | -79.68327 | 8211 ft | 290 kts | 92° |
| 2026-05-05 00:41 | 43.59626 | -79.65628 | 8090 ft | 277 kts | 92° |
| 2026-05-05 00:41 | 43.59645 | -79.63024 | 7969 ft | 265 kts | 93° |
| 2026-05-05 00:41 | 43.59657 | -79.60534 | 7805 ft | 255 kts | 93° |
| 2026-05-05 00:42 | 43.59662 | -79.58120 | 7656 ft | 249 kts | 94° |
| 2026-05-05 00:42 | 43.59833 | -79.55739 | 7506 ft | 251 kts | 77° |
| 2026-05-05 00:42 | 43.60473 | -79.53514 | 7363 ft | 251 kts | 59° |
| 2026-05-05 00:42 | 43.61533 | -79.51631 | 7216 ft | 249 kts | 43° |
| 2026-05-05 00:43 | 43.62734 | -79.49910 | 7069 ft | 249 kts | 44° |
| 2026-05-05 00:43 | 43.63925 | -79.48183 | 6922 ft | 248 kts | 44° |
| 2026-05-05 00:43 | 43.65112 | -79.46453 | 6704 ft | 247 kts | 44° |
| 2026-05-05 00:43 | 43.66286 | -79.44737 | 6443 ft | 246 kts | 45° |
| 2026-05-05 00:44 | 43.67458 | -79.43022 | 6179 ft | 245 kts | 45° |
| 2026-05-05 00:44 | 43.68626 | -79.41312 | 5882 ft | 245 kts | 45° |
| 2026-05-05 00:44 | 43.69802 | -79.39593 | 5559 ft | 246 kts | 45° |
| 2026-05-05 00:44 | 43.70981 | -79.37871 | 5254 ft | 247 kts | 46° |
| 2026-05-05 00:45 | 43.72159 | -79.36148 | 4965 ft | 246 kts | 45° |
| 2026-05-05 00:45 | 43.73336 | -79.34430 | 4689 ft | 246 kts | 45° |
| 2026-05-05 00:45 | 43.74508 | -79.32713 | 4420 ft | 246 kts | 45° |
| 2026-05-05 00:45 | 43.75680 | -79.30992 | 4129 ft | 246 kts | 45° |
| 2026-05-05 00:46 | 43.76830 | -79.29305 | 4004 ft | 244 kts | 45° |
| 2026-05-05 00:46 | 43.78015 | -79.27571 | 3998 ft | 246 kts | 44° |
| 2026-05-05 00:46 | 43.79407 | -79.26351 | 3987 ft | 237 kts | 9° |
| 2026-05-05 00:46 | 43.80973 | -79.26255 | 3789 ft | 217 kts | 339° |
| 2026-05-05 00:47 | 43.82326 | -79.26919 | 3612 ft | 195 kts | 320° |
| 2026-05-05 00:47 | 43.83457 | -79.27856 | 3366 ft | 189 kts | 313° |
| 2026-05-05 00:47 | 43.84371 | -79.29074 | 3133 ft | 173 kts | 294° |
| 2026-05-05 00:47 | 43.84916 | -79.30466 | 3038 ft | 162 kts | 279° |
| 2026-05-05 00:48 | 43.85146 | -79.31954 | 3015 ft | 155 kts | 265° |
| 2026-05-05 00:48 | 43.85077 | -79.33439 | 3015 ft | 151 kts | 252° |
| 2026-05-05 00:48 | 43.84742 | -79.34779 | 3015 ft | 149 kts | 239° |
| 2026-05-05 00:48 | 43.84164 | -79.35963 | 3015 ft | 148 kts | 227° |
| 2026-05-05 00:49 | 43.83456 | -79.36998 | 3008 ft | 148 kts | 226° |
| 2026-05-05 00:49 | 43.82750 | -79.38035 | 3010 ft | 149 kts | 227° |
| 2026-05-05 00:49 | 43.82039 | -79.39078 | 3013 ft | 148 kts | 228° |
| 2026-05-05 00:49 | 43.81332 | -79.40114 | 3013 ft | 149 kts | 227° |
| 2026-05-05 00:50 | 43.80622 | -79.41155 | 3015 ft | 148 kts | 227° |
| 2026-05-05 00:50 | 43.79915 | -79.42190 | 3012 ft | 148 kts | 226° |
| 2026-05-05 00:50 | 43.79204 | -79.43230 | 3023 ft | 149 kts | 226° |
| 2026-05-05 00:50 | 43.78496 | -79.44267 | 3016 ft | 148 kts | 227° |
| 2026-05-05 00:51 | 43.77798 | -79.45288 | 3045 ft | 142 kts | 227° |
| 2026-05-05 00:51 | 43.77130 | -79.46265 | 3011 ft | 138 kts | 226° |
| 2026-05-05 00:51 | 43.76469 | -79.47230 | 2919 ft | 137 kts | 226° |
| 2026-05-05 00:51 | 43.75816 | -79.48186 | 2778 ft | 137 kts | 226° |
| 2026-05-05 00:52 | 43.75166 | -79.49135 | 2618 ft | 136 kts | 225° |
| 2026-05-05 00:52 | 43.74519 | -79.50081 | 2450 ft | 134 kts | 226° |
| 2026-05-05 00:52 | 43.73877 | -79.51018 | 2265 ft | 134 kts | 226° |
| 2026-05-05 00:52 | 43.73238 | -79.51952 | 2093 ft | 134 kts | 225° |
| 2026-05-05 00:53 | 43.72606 | -79.52873 | 1897 ft | 124 kts | 225° |
| 2026-05-05 00:53 | 43.72036 | -79.53706 | 1760 ft | 116 kts | 225° |
| 2026-05-05 00:53 | 43.71482 | -79.54513 | 1605 ft | 116 kts | 226° |
| 2026-05-05 00:53 | 43.70921 | -79.55331 | 1450 ft | 117 kts | 225° |
| 2026-05-05 00:54 | 43.70346 | -79.56168 | 1292 ft | 122 kts | 224° |
| 2026-05-05 00:54 | 43.69753 | -79.57031 | 1127 ft | 124 kts | 225° |
| 2026-05-05 00:54 | 43.69162 | -79.57894 | 952 ft | 126 kts | 223° |
| 2026-05-05 00:54 | 43.68558 | -79.58770 | 783 ft | 128 kts | 225° |
| 2026-05-05 00:55 | 43.67944 | -79.59662 | 639 ft | 129 kts | 225° |
| 2026-05-05 00:55 | 43.67369 | -79.60502 | 568 ft | 107 kts | 226° |
| 2026-05-05 00:55 | 43.66963 | -79.61091 | 569 ft | 60 kts | 226° |
| 2026-05-05 00:55 | 43.66781 | -79.61354 | 566 ft | 28 kts | 226° |
| 2026-05-05 00:56 | 43.66631 | -79.61570 | 565 ft | 33 kts | 226° |
| 2026-05-05 00:56 | 43.66552 | -79.61792 | 559 ft | 9 kts | 258° |
| 2026-05-05 00:56 | 43.66538 | -79.61879 | 559 ft | 9 kts | 263° |
| 2026-05-05 00:56 | 43.66550 | -79.61914 | 565 ft | 0 kts | 304° |
| 2026-05-05 00:57 | 43.66550 | -79.61915 | 565 ft | 2 kts | 304° |
| 2026-05-05 00:57 | 43.66574 | -79.61949 | 559 ft | 1 kts | 323° |
| 2026-05-05 00:57 | 43.66587 | -79.61958 | 560 ft | 2 kts | 334° |
| 2026-05-05 00:58 | 43.66623 | -79.61927 | 561 ft | 11 kts | 48° |
| 2026-05-05 00:58 | 43.66682 | -79.61831 | 563 ft | 15 kts | 45° |
| 2026-05-05 00:58 | 43.66758 | -79.61721 | 562 ft | 17 kts | 46° |
| 2026-05-05 00:58 | 43.66841 | -79.61602 | 564 ft | 18 kts | 46° |
| 2026-05-05 00:59 | 43.66935 | -79.61465 | 565 ft | 20 kts | 46° |
| 2026-05-05 00:59 | 43.67014 | -79.61348 | 568 ft | 18 kts | 46° |
| 2026-05-05 00:59 | 43.67115 | -79.61202 | 563 ft | 24 kts | 46° |
| 2026-05-05 00:59 | 43.67233 | -79.61033 | 560 ft | 27 kts | 46° |
| 2026-05-05 01:00 | 43.67368 | -79.60839 | 558 ft | 17 kts | 45° |
| 2026-05-05 01:00 | 43.67435 | -79.60810 | 562 ft | 16 kts | 338° |
| 2026-05-05 01:00 | 43.67535 | -79.60740 | 564 ft | 20 kts | 48° |
| 2026-05-05 01:00 | 43.67642 | -79.60586 | 561 ft | 24 kts | 45° |
| 2026-05-05 01:01 | 43.67756 | -79.60420 | 561 ft | 14 kts | 47° |
| 2026-05-05 01:01 | 43.67838 | -79.60405 | 566 ft | 14 kts | 310° |
| 2026-05-05 01:01 | 43.67886 | -79.60528 | 569 ft | 17 kts | 316° |
| 2026-05-05 01:01 | 43.67962 | -79.60628 | 562 ft | 7 kts | 315° |
| 2026-05-05 01:02 | 43.67991 | -79.60675 | 568 ft | 4 kts | 284° |
| 2026-05-05 01:02 | 43.67965 | -79.60717 | 563 ft | 4 kts | 226° |
| 2026-05-05 01:02 | 43.67954 | -79.60734 | 565 ft | 0 kts | 227° |